sensor_id;sensor_type;location;lat;lon;timestamp;P1;durP1;ratioP1;P2;durP2;ratioP2
30966;SDS011;17649;51.836;8.330;2024-01-11T19:45:09;109.70;;;47.67;;
30966;SDS011;17649;51.836;8.330;2024-01-11T19:48:15;110.20;;;46.38;;
30966;SDS011;17649;51.836;8.330;2024-01-11T19:51:17;107.82;;;46.97;;
30966;SDS011;17649;51.836;8.330;2024-01-11T19:54:20;107.87;;;49.57;;
30966;SDS011;17649;51.836;8.330;2024-01-11T19:57:22;111.33;;;50.10;;
30966;SDS011;17649;51.836;8.330;2024-01-11T20:00:23;107.23;;;48.87;;
30966;SDS011;17649;51.836;8.330;2024-01-11T20:03:24;108.60;;;50.08;;
30966;SDS011;17649;51.836;8.330;2024-01-11T20:06:24;112.60;;;48.17;;
30966;SDS011;17649;51.836;8.330;2024-01-11T20:09:25;107.40;;;48.70;;
30966;SDS011;17649;51.836;8.330;2024-01-11T20:12:26;175.07;;;75.07;;
30966;SDS011;17649;51.836;8.330;2024-01-11T20:15:26;129.47;;;60.90;;
30966;SDS011;17649;51.836;8.330;2024-01-11T20:18:27;106.03;;;51.90;;
30966;SDS011;17649;51.836;8.330;2024-01-11T20:21:28;104.07;;;49.17;;
30966;SDS011;17649;51.836;8.330;2024-01-11T20:24:29;98.00;;;45.07;;
30966;SDS011;17649;51.836;8.330;2024-01-11T20:27:33;92.88;;;45.83;;
30966;SDS011;17649;51.836;8.330;2024-01-11T20:30:35;95.35;;;50.63;;
30966;SDS011;17649;51.836;8.330;2024-01-11T20:33:35;96.20;;;44.67;;
30966;SDS011;17649;51.836;8.330;2024-01-11T20:36:36;87.55;;;42.30;;
30966;SDS011;17649;51.836;8.330;2024-01-11T20:39:39;89.63;;;44.65;;
30966;SDS011;17649;51.836;8.330;2024-01-11T20:42:40;90.20;;;41.35;;
30966;SDS011;17649;51.836;8.330;2024-01-11T20:45:41;95.63;;;43.17;;
30966;SDS011;17649;51.836;8.330;2024-01-11T20:48:41;97.05;;;46.83;;
30966;SDS011;17649;51.836;8.330;2024-01-11T20:51:44;90.88;;;43.17;;
30966;SDS011;17649;51.836;8.330;2024-01-11T20:54:45;94.90;;;44.13;;
30966;SDS011;17649;51.836;8.330;2024-01-11T20:57:46;92.07;;;40.97;;
30966;SDS011;17649;51.836;8.330;2024-01-11T21:00:46;90.13;;;41.53;;
30966;SDS011;17649;51.836;8.330;2024-01-11T21:03:47;85.50;;;41.23;;
30966;SDS011;17649;51.836;8.330;2024-01-11T21:06:49;95.15;;;45.65;;
30966;SDS011;17649;51.836;8.330;2024-01-11T21:09:49;95.73;;;41.53;;
30966;SDS011;17649;51.836;8.330;2024-01-11T21:12:50;94.53;;;42.07;;
30966;SDS011;17649;51.836;8.330;2024-01-11T21:15:50;97.80;;;42.90;;
30966;SDS011;17649;51.836;8.330;2024-01-11T21:18:51;96.57;;;41.73;;
30966;SDS011;17649;51.836;8.330;2024-01-11T21:21:53;96.13;;;43.20;;
30966;SDS011;17649;51.836;8.330;2024-01-11T21:24:55;91.33;;;39.50;;
30966;SDS011;17649;51.836;8.330;2024-01-11T21:27:55;98.47;;;42.05;;
30966;SDS011;17649;51.836;8.330;2024-01-11T21:30:56;93.77;;;39.33;;
30966;SDS011;17649;51.836;8.330;2024-01-11T21:33:59;96.47;;;42.00;;
30966;SDS011;17649;51.836;8.330;2024-01-11T21:37:00;93.17;;;41.00;;
30966;SDS011;17649;51.836;8.330;2024-01-11T21:40:00;99.47;;;40.47;;
30966;SDS011;17649;51.836;8.330;2024-01-11T21:43:01;96.67;;;41.63;;
30966;SDS011;17649;51.836;8.330;2024-01-11T21:46:03;89.70;;;38.08;;
30966;SDS011;17649;51.836;8.330;2024-01-11T21:49:07;86.15;;;39.65;;
30966;SDS011;17649;51.836;8.330;2024-01-11T21:52:08;93.83;;;40.07;;
30966;SDS011;17649;51.836;8.330;2024-01-11T21:55:08;87.33;;;39.83;;
30966;SDS011;17649;51.836;8.330;2024-01-11T21:58:09;94.37;;;40.67;;
30966;SDS011;17649;51.836;8.330;2024-01-11T22:01:09;84.33;;;37.07;;
30966;SDS011;17649;51.836;8.330;2024-01-11T22:04:12;84.40;;;38.57;;
30966;SDS011;17649;51.836;8.330;2024-01-11T22:07:14;88.50;;;39.42;;
30966;SDS011;17649;51.836;8.330;2024-01-11T22:10:14;91.57;;;39.87;;
30966;SDS011;17649;51.836;8.330;2024-01-11T22:13:15;100.40;;;43.30;;
30966;SDS011;17649;51.836;8.330;2024-01-11T22:16:16;88.90;;;38.50;;
30966;SDS011;17649;51.836;8.330;2024-01-11T22:19:16;75.73;;;35.20;;
30966;SDS011;17649;51.836;8.330;2024-01-11T22:22:17;79.22;;;34.35;;
30966;SDS011;17649;51.836;8.330;2024-01-11T22:25:17;79.72;;;34.53;;
30966;SDS011;17649;51.836;8.330;2024-01-11T22:28:18;70.70;;;31.23;;
30966;SDS011;17649;51.836;8.330;2024-01-11T22:31:18;66.73;;;30.57;;
30966;SDS011;17649;51.836;8.330;2024-01-11T22:34:19;68.40;;;31.70;;
30966;SDS011;17649;51.836;8.330;2024-01-11T22:37:20;69.97;;;32.17;;
30966;SDS011;17649;51.836;8.330;2024-01-11T22:40:20;70.60;;;29.60;;
30966;SDS011;17649;51.836;8.330;2024-01-11T22:43:21;61.10;;;29.63;;
30966;SDS011;17649;51.836;8.330;2024-01-11T22:46:21;64.18;;;30.17;;
30966;SDS011;17649;51.836;8.330;2024-01-11T22:49:22;59.33;;;28.70;;
30966;SDS011;17649;51.836;8.330;2024-01-11T22:52:22;59.10;;;28.45;;
30966;SDS011;17649;51.836;8.330;2024-01-11T22:55:23;59.40;;;27.55;;
30966;SDS011;17649;51.836;8.330;2024-01-11T22:58:24;62.17;;;29.93;;
30966;SDS011;17649;51.836;8.330;2024-01-11T23:01:24;62.20;;;29.60;;
30966;SDS011;17649;51.836;8.330;2024-01-11T23:04:25;69.03;;;30.27;;
30966;SDS011;17649;51.836;8.330;2024-01-11T23:07:25;70.47;;;30.17;;
30966;SDS011;17649;51.836;8.330;2024-01-11T23:10:26;63.97;;;28.77;;
30966;SDS011;17649;51.836;8.330;2024-01-11T23:13:27;68.20;;;29.60;;
30966;SDS011;17649;51.836;8.330;2024-01-11T23:16:27;70.47;;;30.13;;
30966;SDS011;17649;51.836;8.330;2024-01-11T23:19:28;74.13;;;31.33;;
30966;SDS011;17649;51.836;8.330;2024-01-11T23:22:29;70.57;;;31.00;;
30966;SDS011;17649;51.836;8.330;2024-01-11T23:25:30;65.93;;;29.67;;
30966;SDS011;17649;51.836;8.330;2024-01-11T23:28:32;65.27;;;28.87;;
30966;SDS011;17649;51.836;8.330;2024-01-11T23:31:33;60.57;;;27.90;;
30966;SDS011;17649;51.836;8.330;2024-01-11T23:34:34;59.17;;;27.38;;
30966;SDS011;17649;51.836;8.330;2024-01-11T23:37:35;66.17;;;28.30;;
30966;SDS011;17649;51.836;8.330;2024-01-11T23:40:36;59.42;;;27.30;;
30966;SDS011;17649;51.836;8.330;2024-01-11T23:43:36;52.67;;;25.67;;
30966;SDS011;17649;51.836;8.330;2024-01-11T23:46:36;54.55;;;25.77;;
30966;SDS011;17649;51.836;8.330;2024-01-11T23:49:37;57.03;;;26.40;;
30966;SDS011;17649;51.836;8.330;2024-01-11T23:52:37;62.53;;;26.50;;
30966;SDS011;17649;51.836;8.330;2024-01-11T23:55:37;61.03;;;25.83;;
30966;SDS011;17649;51.836;8.330;2024-01-11T23:58:38;57.73;;;25.90;;
